Time;durP1;ratioP1;P1;durP2;ratioP2;P2;SDS_P1;SDS_P2;PMS_P1;PMS_P2;Temp;Humidity;BMP_temperature;BMP_pressure;BME280_temperature;BME280_humidity;BME280_pressure;Samples;Min_cycle;Max_cycle;Signal;HPM_P1;HPM_P2
2022/06/24 00:00:42;;;;;;;11.63;10.38;;;;;;;;;;4987816;28;20117;-60
2022/06/24 00:03:14;;;;;;;11.35;10.15;;;;;;;;;;4990865;28;20498;-60
2022/06/24 00:05:40;;;;;;;10.93;9.82;;;;;;;;;;4990086;28;20026;-60
2022/06/24 00:08:05;;;;;;;10.57;9.57;;;;;;;;;;4987956;28;20104;-60
2022/06/24 00:10:32;;;;;;;11.93;10.85;;;;;;;;;;4987291;28;20467;-60
2022/06/24 00:12:58;;;;;;;10.90;9.90;;;;;;;;;;4987884;28;20475;-60
2022/06/24 00:15:31;;;;;;;10.15;9.20;;;;;;;;;;4991004;28;20030;-60
2022/06/24 00:17:56;;;;;;;10.85;9.85;;;;;;;;;;4989537;28;20526;-60
2022/06/24 00:20:22;;;;;;;10.38;9.35;;;;;;;;;;4987851;28;20567;-60
2022/06/24 00:22:51;;;;;;;10.02;9.20;;;;;;;;;;4989392;28;20022;-60
2022/06/24 00:25:23;;;;;;;10.95;10.10;;;;;;;;;;4991333;28;20033;-60
2022/06/24 00:28:02;;;;;;;10.70;9.80;;;;;;;;;;4988170;28;20080;-60
2022/06/24 00:30:28;;;;;;;10.90;8.65;;;;;;;;;;4987667;28;20487;-60
2022/06/24 00:33:06;;;;;;;10.52;9.50;;;;;;;;;;4990580;28;20023;-60
2022/06/24 00:35:35;;;;;;;10.48;9.70;;;;;;;;;;4990111;28;20094;-60
2022/06/24 00:38:00;;;;;;;11.13;9.82;;;;;;;;;;4964399;28;20027;-60
2022/06/24 00:40:27;;;;;;;9.77;8.98;;;;;;;;;;4984519;28;20066;-60
2022/06/24 00:42:53;;;;;;;11.07;10.05;;;;;;;;;;4987184;28;20022;-60
2022/06/24 00:45:27;;;;;;;10.38;9.07;;;;;;;;;;4990317;28;20073;-64
2022/06/24 00:47:54;;;;;;;9.68;8.63;;;;;;;;;;4988175;28;20373;-60
2022/06/24 00:50:31;;;;;;;10.27;9.32;;;;;;;;;;4989224;28;20460;-60
2022/06/24 00:52:57;;;;;;;8.77;8.07;;;;;;;;;;4972714;28;20598;-61
2022/06/24 00:55:25;;;;;;;8.57;7.97;;;;;;;;;;4972353;28;20029;-60
2022/06/24 00:57:51;;;;;;;8.73;8.02;;;;;;;;;;4990042;28;20572;-60
2022/06/24 01:00:16;;;;;;;10.13;8.98;;;;;;;;;;4993697;28;20030;-60
2022/06/24 01:02:42;;;;;;;9.00;7.90;;;;;;;;;;4991424;28;20065;-60
2022/06/24 01:05:08;;;;;;;8.65;7.85;;;;;;;;;;4992554;28;20023;-60
2022/06/24 01:07:37;;;;;;;9.23;8.48;;;;;;;;;;4992086;28;20102;-62
2022/06/24 01:10:02;;;;;;;9.93;9.13;;;;;;;;;;4996659;28;20034;-62
2022/06/24 01:12:29;;;;;;;9.88;9.07;;;;;;;;;;4997681;28;20042;-60
2022/06/24 01:14:55;;;;;;;12.18;9.77;;;;;;;;;;4996059;28;20101;-60
2022/06/24 01:17:20;;;;;;;10.27;9.38;;;;;;;;;;4993786;28;20034;-61
2022/06/24 01:19:45;;;;;;;10.93;10.02;;;;;;;;;;4995752;28;20026;-60
2022/06/24 01:22:11;;;;;;;11.43;10.15;;;;;;;;;;4997211;28;20037;-60
2022/06/24 01:24:36;;;;;;;12.88;11.70;;;;;;;;;;4992468;28;20026;-60
2022/06/24 01:27:02;;;;;;;12.15;11.10;;;;;;;;;;4990753;28;20022;-60
2022/06/24 01:29:27;;;;;;;11.55;10.57;;;;;;;;;;4993298;28;20487;-60
2022/06/24 01:31:53;;;;;;;12.43;11.23;;;;;;;;;;4988727;28;20468;-59
2022/06/24 01:34:19;;;;;;;11.98;10.88;;;;;;;;;;4987297;28;20753;-59
2022/06/24 01:36:44;;;;;;;12.00;10.93;;;;;;;;;;4991726;28;20026;-59
2022/06/24 01:39:09;;;;;;;13.00;11.32;;;;;;;;;;4993559;28;20026;-59
2022/06/24 01:41:35;;;;;;;12.18;10.98;;;;;;;;;;4990835;28;20066;-60
2022/06/24 01:44:01;;;;;;;11.65;10.32;;;;;;;;;;4991117;28;20026;-59
2022/06/24 01:46:27;;;;;;;11.00;10.00;;;;;;;;;;4993827;28;20029;-59
2022/06/24 01:48:52;;;;;;;12.05;11.00;;;;;;;;;;4991766;28;20022;-59
2022/06/24 01:51:18;;;;;;;10.80;9.82;;;;;;;;;;4987298;28;20034;-59
2022/06/24 01:53:43;;;;;;;10.55;9.63;;;;;;;;;;4988423;28;20034;-59
2022/06/24 01:56:08;;;;;;;11.63;10.52;;;;;;;;;;4991701;28;20042;-59
2022/06/24 01:58:33;;;;;;;11.32;10.32;;;;;;;;;;4995318;28;20566;-59
2022/06/24 02:00:59;;;;;;;11.27;10.38;;;;;;;;;;4990252;28;20551;-58
2022/06/24 02:03:24;;;;;;;11.02;9.98;;;;;;;;;;4987132;28;20490;-60
2022/06/24 02:05:51;;;;;;;11.13;10.23;;;;;;;;;;4992956;28;20026;-59
2022/06/24 02:08:16;;;;;;;11.75;10.65;;;;;;;;;;4991442;28;20050;-58
2022/06/24 02:13:26;;;;;;;9.98;9.07;;;;;;;;;;4989822;28;20053;-60
2022/06/24 02:16:02;;;;;;;10.75;9.85;;;;;;;;;;4991917;28;20026;-61
2022/06/24 02:18:28;;;;;;;12.15;11.05;;;;;;;;;;4990159;28;20061;-62
2022/06/24 02:20:54;;;;;;;10.50;9.60;;;;;;;;;;4987801;28;20527;-61
2022/06/24 02:23:19;;;;;;;10.95;10.05;;;;;;;;;;4987824;28;20023;-60
2022/06/24 02:25:45;;;;;;;10.93;9.93;;;;;;;;;;4988721;28;20424;-61
2022/06/24 02:28:10;;;;;;;10.88;9.80;;;;;;;;;;4989114;28;20057;-61
2022/06/24 02:30:36;;;;;;;10.35;9.38;;;;;;;;;;4990119;28;20033;-62
2022/06/24 02:33:02;;;;;;;9.80;8.80;;;;;;;;;;4989428;28;20049;-62
2022/06/24 02:35:27;;;;;;;9.82;8.82;;;;;;;;;;4973000;28;20062;-61
2022/06/24 02:37:52;;;;;;;9.77;8.82;;;;;;;;;;4992565;28;20033;-60
2022/06/24 02:43:01;;;;;;;9.18;8.40;;;;;;;;;;4990875;28;20084;-62
2022/06/24 02:45:26;;;;;;;8.13;7.40;;;;;;;;;;4990735;28;20034;-60
2022/06/24 02:47:52;;;;;;;8.57;7.75;;;;;;;;;;4989854;28;20030;-59
2022/06/24 02:50:17;;;;;;;9.65;8.20;;;;;;;;;;4985659;28;20030;-62
2022/06/24 02:52:42;;;;;;;8.27;7.45;;;;;;;;;;4986699;28;20022;-62
2022/06/24 02:55:08;;;;;;;8.70;7.90;;;;;;;;;;4987911;28;20026;-61
2022/06/24 02:57:33;;;;;;;8.57;7.78;;;;;;;;;;4973478;28;20048;-62
2022/06/24 02:59:58;;;;;;;8.05;7.43;;;;;;;;;;4989204;28;20034;-62
2022/06/24 03:02:24;;;;;;;8.77;8.07;;;;;;;;;;4987928;28;20586;-62
2022/06/24 03:04:49;;;;;;;8.27;7.68;;;;;;;;;;4990841;28;20049;-62
2022/06/24 03:07:14;;;;;;;8.75;8.02;;;;;;;;;;4989561;28;20462;-61
2022/06/24 03:09:39;;;;;;;9.15;8.35;;;;;;;;;;4985234;28;20054;-61
2022/06/24 03:12:05;;;;;;;8.95;7.53;;;;;;;;;;4989352;28;20064;-61
2022/06/24 03:14:30;;;;;;;9.10;8.25;;;;;;;;;;4994085;28;20152;-62
2022/06/24 03:16:55;;;;;;;9.13;8.23;;;;;;;;;;4990138;28;20380;-62
2022/06/24 03:19:20;;;;;;;11.40;9.32;;;;;;;;;;4988807;28;20026;-61
2022/06/24 03:21:46;;;;;;;8.73;7.82;;;;;;;;;;4991160;28;20026;-61
2022/06/24 03:24:11;;;;;;;9.23;8.43;;;;;;;;;;4990043;28;20033;-63
2022/06/24 03:26:36;;;;;;;9.45;8.75;;;;;;;;;;4987124;28;20022;-62
2022/06/24 03:29:01;;;;;;;10.95;9.35;;;;;;;;;;4990097;28;20488;-61
2022/06/24 03:31:27;;;;;;;10.32;9.43;;;;;;;;;;4987766;28;20396;-61
2022/06/24 03:33:53;;;;;;;11.70;9.90;;;;;;;;;;4987784;28;20036;-61
2022/06/24 03:36:18;;;;;;;10.20;9.35;;;;;;;;;;4987385;28;20511;-61
2022/06/24 03:38:44;;;;;;;11.02;9.95;;;;;;;;;;4988583;28;20026;-61
2022/06/24 03:41:09;;;;;;;11.02;9.50;;;;;;;;;;4989011;28;20113;-61
2022/06/24 03:43:34;;;;;;;11.93;10.70;;;;;;;;;;4989471;28;20057;-61
2022/06/24 03:46:00;;;;;;;11.70;10.25;;;;;;;;;;4986756;28;20048;-61
2022/06/24 03:48:25;;;;;;;11.30;10.15;;;;;;;;;;4989687;28;20037;-62
2022/06/24 03:50:50;;;;;;;9.88;8.93;;;;;;;;;;4990101;28;20034;-62
2022/06/24 03:53:16;;;;;;;10.05;9.07;;;;;;;;;;4988834;28;20026;-61
2022/06/24 03:55:41;;;;;;;9.80;8.93;;;;;;;;;;4983790;28;20421;-62
2022/06/24 03:58:06;;;;;;;9.38;8.57;;;;;;;;;;4983988;28;20038;-61
2022/06/24 04:00:32;;;;;;;9.27;8.38;;;;;;;;;;4986339;28;20617;-60
2022/06/24 04:02:57;;;;;;;8.77;7.97;;;;;;;;;;4985491;28;20507;-62
2022/06/24 04:05:22;;;;;;;9.80;8.98;;;;;;;;;;4983962;28;20019;-62
2022/06/24 04:07:47;;;;;;;9.63;8.65;;;;;;;;;;4987379;28;20213;-62
2022/06/24 04:10:13;;;;;;;11.50;10.40;;;;;;;;;;4987718;28;20018;-62
2022/06/24 04:12:38;;;;;;;12.38;11.13;;;;;;;;;;4987247;28;20057;-62
2022/06/24 04:15:17;;;;;;;11.60;10.50;;;;;;;;;;4987804;28;20443;-61
2022/06/24 04:17:43;;;;;;;10.73;9.82;;;;;;;;;;4991581;28;20022;-62
2022/06/24 04:20:08;;;;;;;14.23;9.90;;;;;;;;;;4991053;28;20400;-62
2022/06/24 04:22:34;;;;;;;12.00;10.07;;;;;;;;;;4988560;28;20034;-62
2022/06/24 04:24:59;;;;;;;11.93;10.80;;;;;;;;;;4985730;28;20029;-62
2022/06/24 04:27:25;;;;;;;10.30;9.45;;;;;;;;;;4993226;28;20022;-62
2022/06/24 04:29:50;;;;;;;13.13;10.40;;;;;;;;;;4992766;28;20026;-62
2022/06/24 04:32:16;;;;;;;11.25;10.25;;;;;;;;;;4965115;28;20072;-62
2022/06/24 04:34:41;;;;;;;9.50;8.55;;;;;;;;;;4990300;28;20962;-61
2022/06/24 04:37:06;;;;;;;10.35;9.35;;;;;;;;;;4992797;28;20026;-61
2022/06/24 04:39:32;;;;;;;11.25;10.15;;;;;;;;;;4990296;28;20443;-61
2022/06/24 04:41:57;;;;;;;10.05;9.15;;;;;;;;;;4987890;28;20065;-61
2022/06/24 04:44:22;;;;;;;9.38;8.50;;;;;;;;;;4989645;28;20126;-61
2022/06/24 04:46:48;;;;;;;10.48;9.57;;;;;;;;;;4990380;28;20028;-61
2022/06/24 04:49:13;;;;;;;9.25;8.52;;;;;;;;;;4988103;28;20547;-61
2022/06/24 04:51:38;;;;;;;10.38;9.38;;;;;;;;;;4990416;28;20038;-64
2022/06/24 04:54:04;;;;;;;9.02;8.32;;;;;;;;;;4992502;28;20038;-65
2022/06/24 04:56:29;;;;;;;9.10;8.30;;;;;;;;;;4993611;28;20014;-65
2022/06/24 04:58:55;;;;;;;9.90;8.85;;;;;;;;;;4991898;28;20536;-65
2022/06/24 05:01:20;;;;;;;8.30;7.53;;;;;;;;;;4989288;28;20369;-65
2022/06/24 05:03:46;;;;;;;9.75;7.82;;;;;;;;;;4988750;28;20104;-65
2022/06/24 05:06:11;;;;;;;10.38;8.25;;;;;;;;;;4990038;28;20040;-61
2022/06/24 05:08:37;;;;;;;8.32;7.53;;;;;;;;;;4988894;28;20054;-64
2022/06/24 05:11:04;;;;;;;10.05;7.28;;;;;;;;;;4991141;28;20072;-61
2022/06/24 05:13:29;;;;;;;9.52;8.43;;;;;;;;;;4991284;28;20476;-62
2022/06/24 05:15:55;;;;;;;12.10;7.78;;;;;;;;;;4988286;28;20014;-61
2022/06/24 05:18:20;;;;;;;8.10;7.38;;;;;;;;;;4987944;28;20447;-61
2022/06/24 05:20:46;;;;;;;10.20;7.68;;;;;;;;;;4991076;28;20026;-62
2022/06/24 05:23:11;;;;;;;9.80;8.02;;;;;;;;;;4993732;28;20320;-63
2022/06/24 05:25:37;;;;;;;11.65;8.10;;;;;;;;;;4992376;28;20026;-61
2022/06/24 05:28:03;;;;;;;8.18;7.25;;;;;;;;;;4973343;28;20030;-61
2022/06/24 05:30:28;;;;;;;10.15;7.57;;;;;;;;;;4989108;28;20057;-61
2022/06/24 05:32:53;;;;;;;10.98;8.60;;;;;;;;;;4989385;28;20038;-61
2022/06/24 05:35:18;;;;;;;8.10;7.38;;;;;;;;;;4992102;28;20030;-61
2022/06/24 05:37:44;;;;;;;9.00;7.28;;;;;;;;;;4990268;28;20030;-61
2022/06/24 05:40:09;;;;;;;7.97;7.18;;;;;;;;;;4989158;28;20030;-61
2022/06/24 05:42:34;;;;;;;7.13;6.57;;;;;;;;;;4973107;28;20082;-60
2022/06/24 05:45:00;;;;;;;7.75;7.15;;;;;;;;;;4992133;28;20787;-62
2022/06/24 05:47:25;;;;;;;8.02;7.20;;;;;;;;;;4986169;28;20387;-60
2022/06/24 05:49:50;;;;;;;7.25;6.50;;;;;;;;;;4986486;28;20030;-60
2022/06/24 05:52:16;;;;;;;7.35;6.80;;;;;;;;;;4988264;28;20026;-60
2022/06/24 05:57:26;;;;;;;22.38;14.48;;;;;;;;;;4988497;28;20086;-60
2022/06/24 05:59:51;;;;;;;7.18;6.13;;;;;;;;;;4987838;28;20376;-61
2022/06/24 06:02:18;;;;;;;12.88;6.32;;;;;;;;;;4989571;28;20027;-62
2022/06/24 06:04:44;;;;;;;5.80;5.40;;;;;;;;;;4987398;28;20085;-62
2022/06/24 06:07:09;;;;;;;7.97;5.90;;;;;;;;;;4985866;28;20030;-62
2022/06/24 06:09:34;;;;;;;11.25;6.00;;;;;;;;;;4992070;28;20516;-60
2022/06/24 06:11:59;;;;;;;5.75;5.25;;;;;;;;;;4991839;28;20072;-61
2022/06/24 06:14:25;;;;;;;8.50;6.45;;;;;;;;;;4987616;28;20033;-60
2022/06/24 06:16:50;;;;;;;6.85;5.30;;;;;;;;;;4985328;28;20029;-60
2022/06/24 06:19:15;;;;;;;5.70;5.22;;;;;;;;;;4988629;28;20037;-60
2022/06/24 06:21:40;;;;;;;8.32;5.28;;;;;;;;;;4989124;28;20026;-60
2022/06/24 06:24:06;;;;;;;8.30;5.72;;;;;;;;;;4986707;28;20034;-60
2022/06/24 06:26:31;;;;;;;6.53;6.05;;;;;;;;;;4987041;28;20034;-62
2022/06/24 06:28:56;;;;;;;5.80;5.40;;;;;;;;;;4991884;28;20037;-60
2022/06/24 06:31:21;;;;;;;7.63;4.82;;;;;;;;;;4990670;28;20041;-60
2022/06/24 06:33:47;;;;;;;5.55;5.18;;;;;;;;;;4986207;28;20080;-60
2022/06/24 06:36:13;;;;;;;6.18;5.57;;;;;;;;;;4985307;28;20022;-60
2022/06/24 06:38:39;;;;;;;8.02;6.68;;;;;;;;;;4988851;28;20030;-59
2022/06/24 06:41:04;;;;;;;5.75;5.25;;;;;;;;;;4988720;28;20463;-60
2022/06/24 06:43:30;;;;;;;6.00;5.38;;;;;;;;;;4985893;28;20048;-60
2022/06/24 06:45:55;;;;;;;6.18;5.68;;;;;;;;;;4987431;28;20026;-60
2022/06/24 06:48:21;;;;;;;6.10;5.40;;;;;;;;;;4988193;28;20630;-60
2022/06/24 06:50:46;;;;;;;6.15;5.57;;;;;;;;;;4985160;28;20508;-61
2022/06/24 06:53:11;;;;;;;8.98;5.63;;;;;;;;;;4984886;28;20029;-60
2022/06/24 06:55:37;;;;;;;7.07;5.82;;;;;;;;;;4987624;28;20113;-60
2022/06/24 06:58:02;;;;;;;7.65;6.88;;;;;;;;;;4992096;28;20049;-60
2022/06/24 07:00:27;;;;;;;8.20;5.45;;;;;;;;;;4989138;28;20121;-60
2022/06/24 07:02:53;;;;;;;9.68;5.88;;;;;;;;;;4987098;28;20476;-60
2022/06/24 07:05:18;;;;;;;8.02;6.90;;;;;;;;;;4987137;28;20030;-60
2022/06/24 07:07:43;;;;;;;6.45;5.85;;;;;;;;;;4991239;28;20045;-60
2022/06/24 07:10:09;;;;;;;6.93;6.32;;;;;;;;;;4988852;28;20917;-61
2022/06/24 07:12:34;;;;;;;6.50;5.88;;;;;;;;;;4984621;28;20125;-61
2022/06/24 07:14:59;;;;;;;6.22;5.38;;;;;;;;;;4987218;28;20030;-61
2022/06/24 07:17:24;;;;;;;6.75;5.65;;;;;;;;;;4987396;28;20041;-61
2022/06/24 07:19:50;;;;;;;7.85;5.78;;;;;;;;;;4985107;28;20022;-61
2022/06/24 07:22:15;;;;;;;6.35;5.75;;;;;;;;;;4985608;28;20375;-60
2022/06/24 07:24:40;;;;;;;5.28;4.95;;;;;;;;;;4986448;28;20254;-61
2022/06/24 07:27:07;;;;;;;6.28;5.40;;;;;;;;;;4988402;28;20053;-61
2022/06/24 07:29:33;;;;;;;6.25;5.70;;;;;;;;;;4990586;28;20022;-60
2022/06/24 07:31:59;;;;;;;7.75;5.70;;;;;;;;;;4988078;28;20037;-61
2022/06/24 07:34:26;;;;;;;6.00;5.43;;;;;;;;;;4986200;28;20037;-60
2022/06/24 07:36:51;;;;;;;6.97;5.05;;;;;;;;;;4983496;28;20961;-61
2022/06/24 07:39:16;;;;;;;8.85;5.03;;;;;;;;;;4987987;28;20030;-61
2022/06/24 07:41:42;;;;;;;5.60;4.80;;;;;;;;;;4987021;28;21072;-61
2022/06/24 07:44:07;;;;;;;5.68;4.75;;;;;;;;;;4986133;28;20054;-61
2022/06/24 07:46:32;;;;;;;4.60;4.40;;;;;;;;;;4983987;28;20782;-61
2022/06/24 07:48:57;;;;;;;4.82;4.50;;;;;;;;;;4987672;28;20026;-61
2022/06/24 07:51:23;;;;;;;4.68;4.28;;;;;;;;;;4987062;28;20469;-61
2022/06/24 07:53:48;;;;;;;4.55;4.13;;;;;;;;;;4986083;28;20559;-61
2022/06/24 07:58:58;;;;;;;4.90;4.50;;;;;;;;;;4989676;28;20103;-61
2022/06/24 08:01:23;;;;;;;6.05;4.68;;;;;;;;;;4986300;28;20614;-61
2022/06/24 08:03:49;;;;;;;4.97;4.55;;;;;;;;;;4984421;28;20541;-61
2022/06/24 08:06:14;;;;;;;5.25;4.85;;;;;;;;;;4985435;28;20457;-61
2022/06/24 08:08:39;;;;;;;4.93;4.25;;;;;;;;;;4990065;28;20514;-61
2022/06/24 08:11:04;;;;;;;6.68;4.72;;;;;;;;;;4989190;28;20100;-61
2022/06/24 08:13:30;;;;;;;5.28;4.40;;;;;;;;;;4989154;28;20052;-60
2022/06/24 08:15:56;;;;;;;5.28;4.68;;;;;;;;;;4987475;28;20030;-60
2022/06/24 08:18:21;;;;;;;6.82;4.93;;;;;;;;;;4987195;28;20117;-60
2022/06/24 08:20:46;;;;;;;5.25;4.85;;;;;;;;;;4985044;28;20117;-60
2022/06/24 08:23:12;;;;;;;5.22;4.70;;;;;;;;;;4985546;28;20026;-60
2022/06/24 08:25:37;;;;;;;6.60;5.10;;;;;;;;;;4984775;28;20041;-61
2022/06/24 08:28:02;;;;;;;5.20;4.63;;;;;;;;;;4988366;28;20030;-60
2022/06/24 08:30:28;;;;;;;5.40;4.90;;;;;;;;;;4988005;28;20124;-60
2022/06/24 08:32:53;;;;;;;4.28;3.88;;;;;;;;;;4983918;28;20030;-61
2022/06/24 08:35:18;;;;;;;4.57;4.28;;;;;;;;;;4985638;28;20489;-60
2022/06/24 08:37:43;;;;;;;6.63;4.43;;;;;;;;;;4987128;28;20400;-60
2022/06/24 08:40:10;;;;;;;5.38;5.03;;;;;;;;;;4985457;28;20034;-60
2022/06/24 08:42:37;;;;;;;7.10;5.40;;;;;;;;;;4987569;28;20073;-60
2022/06/24 08:45:03;;;;;;;5.18;4.68;;;;;;;;;;4990842;28;20031;-60
2022/06/24 08:47:28;;;;;;;5.45;5.05;;;;;;;;;;4984994;28;20030;-61
2022/06/24 08:49:53;;;;;;;5.45;5.13;;;;;;;;;;4985482;28;20032;-60
2022/06/24 08:52:19;;;;;;;4.82;4.40;;;;;;;;;;4987355;28;20400;-61
2022/06/24 08:54:46;;;;;;;4.78;4.28;;;;;;;;;;4987854;28;20443;-62
2022/06/24 08:57:12;;;;;;;5.65;5.13;;;;;;;;;;4988134;28;20101;-59
2022/06/24 08:59:37;;;;;;;4.90;4.50;;;;;;;;;;4989931;28;20071;-60
2022/06/24 09:02:03;;;;;;;5.03;4.72;;;;;;;;;;4987031;28;20160;-60
2022/06/24 09:04:31;;;;;;;5.00;4.60;;;;;;;;;;4985627;28;20467;-61
2022/06/24 09:06:56;;;;;;;5.90;5.47;;;;;;;;;;4985265;28;20179;-61
2022/06/24 09:09:23;;;;;;;12.50;5.15;;;;;;;;;;4990252;28;20189;-62
2022/06/24 09:11:51;;;;;;;4.35;4.10;;;;;;;;;;4989458;28;20370;-62
2022/06/24 09:14:16;;;;;;;8.75;4.80;;;;;;;;;;4993005;28;20449;-62
2022/06/24 09:16:42;;;;;;;6.15;5.45;;;;;;;;;;4990485;28;20037;-62
2022/06/24 09:19:07;;;;;;;4.25;3.85;;;;;;;;;;4989703;28;20239;-62
2022/06/24 09:21:44;;;;;;;4.30;4.05;;;;;;;;;;4970920;28;20034;-62
2022/06/24 09:24:09;;;;;;;5.07;4.68;;;;;;;;;;4987058;28;20034;-62
2022/06/24 09:26:34;;;;;;;4.63;4.30;;;;;;;;;;4988022;28;20044;-62
2022/06/24 09:29:00;;;;;;;8.02;5.07;;;;;;;;;;4990544;28;20291;-62
2022/06/24 09:31:27;;;;;;;5.25;4.82;;;;;;;;;;4991555;28;20030;-62
2022/06/24 09:33:52;;;;;;;5.25;4.85;;;;;;;;;;4988135;28;20108;-62
2022/06/24 09:36:20;;;;;;;9.15;4.55;;;;;;;;;;4988656;28;20419;-62
2022/06/24 09:38:51;;;;;;;5.68;5.10;;;;;;;;;;4989649;28;20061;-62
2022/06/24 09:41:16;;;;;;;7.95;5.45;;;;;;;;;;4988557;28;20085;-62
2022/06/24 09:43:42;;;;;;;5.25;4.95;;;;;;;;;;4989300;28;20034;-62
2022/06/24 09:46:15;;;;;;;4.95;4.47;;;;;;;;;;4988423;28;20034;-62
2022/06/24 09:48:41;;;;;;;5.80;5.22;;;;;;;;;;4989554;28;20413;-63
2022/06/24 09:51:06;;;;;;;6.88;4.00;;;;;;;;;;4970955;28;20036;-62
2022/06/24 09:53:36;;;;;;;5.22;4.60;;;;;;;;;;4988264;28;20129;-63
2022/06/24 09:56:02;;;;;;;4.57;4.28;;;;;;;;;;4990078;28;20026;-59
2022/06/24 09:58:27;;;;;;;4.95;4.65;;;;;;;;;;4992991;28;20033;-60
2022/06/24 10:00:53;;;;;;;6.30;5.70;;;;;;;;;;4991092;28;20052;-61
2022/06/24 10:03:18;;;;;;;5.25;4.28;;;;;;;;;;4990212;28;20129;-60
2022/06/24 10:05:44;;;;;;;5.93;4.82;;;;;;;;;;4991296;28;20045;-60
2022/06/24 10:08:11;;;;;;;5.25;4.28;;;;;;;;;;4987652;28;20448;-60
2022/06/24 10:10:39;;;;;;;4.57;4.25;;;;;;;;;;4989736;28;20037;-61
2022/06/24 10:13:08;;;;;;;5.68;5.10;;;;;;;;;;4990945;28;20026;-60
2022/06/24 10:15:33;;;;;;;6.30;5.72;;;;;;;;;;4991565;28;20026;-60
2022/06/24 10:18:00;;;;;;;11.20;5.57;;;;;;;;;;4988271;28;20092;-61
2022/06/24 10:20:25;;;;;;;5.10;4.65;;;;;;;;;;4989046;28;20054;-60
2022/06/24 10:22:51;;;;;;;4.75;4.28;;;;;;;;;;4988241;28;20121;-60
2022/06/24 10:25:18;;;;;;;4.80;4.47;;;;;;;;;;4991093;28;20034;-60
2022/06/24 10:28:09;;;;;;;5.05;4.65;;;;;;;;;;4990823;28;20392;-60
2022/06/24 10:30:52;;;;;;;6.75;4.80;;;;;;;;;;4983029;28;20037;-60
2022/06/24 10:33:21;;;;;;;4.68;4.22;;;;;;;;;;4986607;28;20034;-59
2022/06/24 10:36:01;;;;;;;6.00;5.40;;;;;;;;;;4989574;28;20492;-58
2022/06/24 10:38:34;;;;;;;5.80;5.10;;;;;;;;;;4993282;28;20030;-58
2022/06/24 10:40:59;;;;;;;5.10;4.70;;;;;;;;;;4991345;28;20038;-60
2022/06/24 10:43:43;;;;;;;4.45;4.15;;;;;;;;;;4990459;28;20924;-59
2022/06/24 10:46:12;;;;;;;5.20;4.90;;;;;;;;;;4988905;28;20038;-58
2022/06/24 10:48:43;;;;;;;5.10;4.60;;;;;;;;;;4986242;28;20034;-59
2022/06/24 10:51:14;;;;;;;4.85;4.22;;;;;;;;;;4990054;28;20447;-59
2022/06/24 10:53:58;;;;;;;5.30;4.85;;;;;;;;;;4993248;28;20420;-59
2022/06/24 10:56:36;;;;;;;7.80;4.87;;;;;;;;;;4988477;28;20085;-59
2022/06/24 10:59:01;;;;;;;5.75;5.35;;;;;;;;;;4988832;28;20033;-59
2022/06/24 11:01:26;;;;;;;5.60;5.07;;;;;;;;;;4989474;28;20034;-59
2022/06/24 11:03:52;;;;;;;6.82;5.13;;;;;;;;;;4987691;28;20027;-58
2022/06/24 11:06:17;;;;;;;6.22;4.22;;;;;;;;;;4988837;28;20030;-58
2022/06/24 11:08:43;;;;;;;8.75;4.82;;;;;;;;;;4991089;28;20468;-59
2022/06/24 11:11:08;;;;;;;7.00;5.70;;;;;;;;;;4990172;28;20041;-59
2022/06/24 11:13:33;;;;;;;7.70;4.88;;;;;;;;;;4992873;28;20081;-59
2022/06/24 11:15:59;;;;;;;6.30;5.00;;;;;;;;;;4990513;28;20041;-60
2022/06/24 11:18:26;;;;;;;5.25;4.95;;;;;;;;;;4987404;28;20040;-67
2022/06/24 11:21:02;;;;;;;5.30;4.97;;;;;;;;;;4988057;28;20029;-64
2022/06/24 11:23:29;;;;;;;5.28;4.78;;;;;;;;;;4989872;28;20109;-68
2022/06/24 11:25:56;;;;;;;6.15;5.45;;;;;;;;;;4992444;28;20539;-63
2022/06/24 11:28:26;;;;;;;5.30;4.90;;;;;;;;;;4987993;28;20026;-60
2022/06/24 11:30:52;;;;;;;6.00;5.10;;;;;;;;;;4970230;28;20030;-61
2022/06/24 11:33:18;;;;;;;5.55;5.15;;;;;;;;;;4986781;28;20212;-59
2022/06/24 11:35:45;;;;;;;8.07;5.18;;;;;;;;;;4986442;28;20030;-62
2022/06/24 11:38:10;;;;;;;8.43;5.15;;;;;;;;;;4987458;28;20388;-64
2022/06/24 11:40:35;;;;;;;6.70;5.28;;;;;;;;;;4988291;28;20604;-63
2022/06/24 11:43:09;;;;;;;5.22;4.82;;;;;;;;;;4992374;28;20508;-62
2022/06/24 11:45:36;;;;;;;5.47;5.07;;;;;;;;;;4990751;28;20026;-63
2022/06/24 11:48:02;;;;;;;6.63;6.03;;;;;;;;;;4988035;28;20026;-63
2022/06/24 11:50:27;;;;;;;7.28;6.68;;;;;;;;;;4986290;28;20376;-64
2022/06/24 11:52:55;;;;;;;6.25;5.40;;;;;;;;;;4985288;28;20029;-63
2022/06/24 11:55:25;;;;;;;6.13;5.63;;;;;;;;;;4988221;28;20104;-63
2022/06/24 11:57:54;;;;;;;4.93;4.60;;;;;;;;;;4992478;28;20092;-63
2022/06/24 12:00:19;;;;;;;5.40;5.05;;;;;;;;;;4987910;28;20030;-63
2022/06/24 12:02:45;;;;;;;7.28;6.35;;;;;;;;;;4986620;28;20519;-63
2022/06/24 12:05:10;;;;;;;7.18;4.80;;;;;;;;;;4987070;28;20032;-63
2022/06/24 12:07:36;;;;;;;5.13;4.72;;;;;;;;;;4987124;28;20595;-64
2022/06/24 12:10:01;;;;;;;5.55;5.05;;;;;;;;;;4987403;28;20041;-63
2022/06/24 12:12:27;;;;;;;6.00;5.43;;;;;;;;;;4961216;28;20471;-63
2022/06/24 12:14:55;;;;;;;6.93;5.03;;;;;;;;;;4985127;28;20081;-64
2022/06/24 12:17:20;;;;;;;5.65;5.15;;;;;;;;;;4983679;28;20443;-64
2022/06/24 12:19:55;;;;;;;5.68;5.28;;;;;;;;;;4986458;28;20022;-65
2022/06/24 12:22:21;;;;;;;5.55;5.15;;;;;;;;;;4980293;28;20034;-65
2022/06/24 12:24:47;;;;;;;5.70;5.30;;;;;;;;;;4985688;28;20092;-64
2022/06/24 12:27:13;;;;;;;6.18;5.75;;;;;;;;;;4985554;28;20034;-64
2022/06/24 12:29:42;;;;;;;5.65;5.03;;;;;;;;;;4987982;28;20053;-64
2022/06/24 12:32:08;;;;;;;6.88;6.05;;;;;;;;;;4983558;28;20027;-65
2022/06/24 12:34:34;;;;;;;6.65;5.95;;;;;;;;;;4985692;28;20168;-64
2022/06/24 12:37:02;;;;;;;6.22;5.65;;;;;;;;;;4984117;28;20034;-67
2022/06/24 12:39:32;;;;;;;8.55;6.05;;;;;;;;;;4984941;28;20560;-65
2022/06/24 12:41:58;;;;;;;5.93;5.53;;;;;;;;;;4985716;28;20109;-64
2022/06/24 12:44:23;;;;;;;5.90;5.50;;;;;;;;;;4987528;28;20036;-64
2022/06/24 12:52:37;;;;;;;9.95;5.47;;;;;;;;;;4991505;28;20077;-64
2022/06/24 12:55:03;;;;;;;5.68;5.10;;;;;;;;;;4994386;28;20133;-64
2022/06/24 12:57:29;;;;;;;6.07;5.45;;;;;;;;;;4994915;28;20574;-64
2022/06/24 12:59:54;;;;;;;6.10;5.60;;;;;;;;;;4992552;28;20030;-65
2022/06/24 13:02:19;;;;;;;7.43;5.72;;;;;;;;;;4990816;28;20164;-65
2022/06/24 13:04:45;;;;;;;7.35;6.22;;;;;;;;;;4989506;28;20029;-64
2022/06/24 13:07:10;;;;;;;6.07;5.57;;;;;;;;;;4990422;28;20436;-64
2022/06/24 13:09:35;;;;;;;6.28;5.70;;;;;;;;;;4991401;28;20257;-64
2022/06/24 13:12:00;;;;;;;7.03;6.53;;;;;;;;;;4994618;28;20045;-64
2022/06/24 13:14:26;;;;;;;9.15;6.80;;;;;;;;;;4988197;28;20387;-63
2022/06/24 13:16:51;;;;;;;9.35;5.95;;;;;;;;;;4973997;28;20058;-63
2022/06/24 13:19:16;;;;;;;6.35;5.88;;;;;;;;;;4989231;28;20046;-60
2022/06/24 13:21:41;;;;;;;7.07;6.47;;;;;;;;;;4990459;28;20580;-63
2022/06/24 13:24:07;;;;;;;6.38;5.97;;;;;;;;;;4991086;28;20030;-61
2022/06/24 13:27:05;;;;;;;6.93;5.68;;;;;;;;;;4989818;28;20021;-60
2022/06/24 13:29:48;;;;;;;7.68;6.10;;;;;;;;;;4988110;28;20439;-61
2022/06/24 13:32:13;;;;;;;6.70;6.13;;;;;;;;;;4972185;28;20363;-61
2022/06/24 13:34:39;;;;;;;6.75;6.18;;;;;;;;;;4989821;28;20030;-61
2022/06/24 13:37:04;;;;;;;8.15;5.97;;;;;;;;;;4988945;28;20034;-61
2022/06/24 13:39:29;;;;;;;6.70;6.00;;;;;;;;;;4988873;28;20467;-61
2022/06/24 13:41:55;;;;;;;7.93;6.70;;;;;;;;;;4988619;28;20110;-61
2022/06/24 13:44:20;;;;;;;7.70;6.13;;;;;;;;;;4991992;28;20877;-60
2022/06/24 13:46:45;;;;;;;12.45;6.72;;;;;;;;;;4988558;28;20216;-62
2022/06/24 13:49:11;;;;;;;8.55;6.43;;;;;;;;;;4987319;28;20647;-62
2022/06/24 13:51:36;;;;;;;6.60;5.70;;;;;;;;;;4990296;28;20117;-60
2022/06/24 13:54:01;;;;;;;6.22;5.63;;;;;;;;;;4988748;28;20480;-62
2022/06/24 13:56:27;;;;;;;7.30;6.70;;;;;;;;;;4987073;28;20068;-61
2022/06/24 13:58:53;;;;;;;9.13;6.07;;;;;;;;;;4973694;28;20086;-60
2022/06/24 14:01:19;;;;;;;7.00;6.50;;;;;;;;;;4988495;28;20030;-63
2022/06/24 14:03:44;;;;;;;7.75;7.10;;;;;;;;;;4984576;28;20517;-61
2022/06/24 14:06:09;;;;;;;7.75;6.97;;;;;;;;;;4988954;28;20458;-61
2022/06/24 14:08:35;;;;;;;8.63;6.78;;;;;;;;;;4987133;28;20492;-63
2022/06/24 14:11:00;;;;;;;7.07;6.22;;;;;;;;;;4989019;28;20458;-63
2022/06/24 14:13:25;;;;;;;7.00;6.50;;;;;;;;;;4987309;28;20030;-63
2022/06/24 14:15:51;;;;;;;6.90;6.30;;;;;;;;;;4985147;28;20033;-62
2022/06/24 14:18:16;;;;;;;9.23;7.20;;;;;;;;;;4985550;28;20034;-61
2022/06/24 14:20:41;;;;;;;6.50;6.00;;;;;;;;;;4987386;28;20536;-61
2022/06/24 14:25:51;;;;;;;8.80;6.00;;;;;;;;;;4985076;28;20076;-64
2022/06/24 14:28:17;;;;;;;13.43;6.97;;;;;;;;;;4986635;28;20027;-62
2022/06/24 14:30:42;;;;;;;7.30;6.30;;;;;;;;;;4987241;28;20026;-61
2022/06/24 14:33:07;;;;;;;6.70;6.13;;;;;;;;;;4986081;28;20026;-63
2022/06/24 14:35:32;;;;;;;7.25;6.55;;;;;;;;;;4987463;28;20026;-63
2022/06/24 14:40:41;;;;;;;7.43;6.40;;;;;;;;;;4989743;28;20108;-63
2022/06/24 14:43:07;;;;;;;8.75;6.88;;;;;;;;;;4985452;28;20273;-63
2022/06/24 14:45:32;;;;;;;10.15;7.13;;;;;;;;;;4984613;28;20034;-64
2022/06/24 14:48:01;;;;;;;8.27;6.82;;;;;;;;;;4990145;28;20516;-65
2022/06/24 14:50:27;;;;;;;8.75;6.82;;;;;;;;;;4995431;28;20022;-64
2022/06/24 14:52:52;;;;;;;7.05;6.45;;;;;;;;;;4987406;28;20514;-63
2022/06/24 14:55:17;;;;;;;9.30;7.85;;;;;;;;;;4985066;28;20026;-64